CONNECT WITH FLYNQY PILOT TRAINING

Newquay Five Day Forecast

This Weather Widget is provided by the Met Office

EGHQ TAF and METAR

METAR

EGHQ 191950Z 28014KT 9999 SCT023 08/03 Q1026

TAF

TAF EGHQ 191657Z 1918/1922 29013KT 9999 SCT025